createdAt,value
2023-04-15T04:01:08.885Z,98905.69
2023-04-15T04:05:11.582Z,98892.53
2023-04-15T04:09:14.114Z,98890.59
2023-04-15T04:13:17.093Z,98897.81
2023-04-15T04:17:21.033Z,98900.91
2023-04-15T04:21:23.700Z,98886.03
2023-04-15T04:25:27.291Z,98893.13
2023-04-15T04:29:29.810Z,98899.44
2023-04-15T04:33:33.798Z,98898.22
2023-04-15T04:37:36.856Z,98900.44
2023-04-15T04:41:39.376Z,98886.03
2023-04-15T04:45:41.949Z,98888.06
2023-04-15T04:49:45.831Z,98892.38
2023-04-15T04:53:48.396Z,98879.63
2023-04-15T04:57:51.406Z,98899.19
2023-04-15T05:01:54.021Z,98891.19
2023-04-15T05:05:58.041Z,98891.81
2023-04-15T05:10:00.546Z,98888.66
2023-04-15T05:14:03.145Z,98892.63
2023-04-15T05:18:05.814Z,98897.19
2023-04-15T05:22:09.932Z,98889.53
2023-04-15T05:26:12.480Z,98901.91
2023-04-15T05:30:15.991Z,98900.88
2023-04-15T05:34:18.558Z,98901.09
2023-04-15T05:38:22.473Z,98899.44
2023-04-15T05:42:25.032Z,98901.75
2023-04-15T05:46:27.653Z,98901.16
2023-04-15T05:50:30.581Z,98900.56
2023-04-15T05:54:34.458Z,98899.69
2023-04-15T05:58:36.979Z,98896.97
2023-04-15T06:02:39.628Z,98906.88
2023-04-15T06:06:42.590Z,98911.75
2023-04-15T06:10:46.635Z,98899.44
2023-04-15T06:14:49.162Z,98910.66
2023-04-15T06:18:51.658Z,98905.25
2023-04-15T06:22:54.206Z,98905.94
2023-04-15T06:26:58.164Z,98901.59
2023-04-15T06:31:01.440Z,98899.56
2023-04-15T06:35:04.193Z,98915.44
2023-04-15T06:39:06.695Z,98911.53
2023-04-15T06:43:10.667Z,98917.09
2023-04-15T06:47:14.672Z,98909.84
2023-04-15T06:51:17.319Z,98910.09
2023-04-15T06:55:19.938Z,98911.53
2023-04-15T06:59:24.096Z,98912.13
2023-04-15T07:03:27.076Z,98910.34
2023-04-15T07:07:29.567Z,98903.31
2023-04-15T07:11:32.147Z,98905.13
2023-04-15T07:15:36.104Z,98916.47
2023-04-15T07:19:39.065Z,98921.66
2023-04-15T07:23:41.629Z,98924.09
2023-04-15T07:27:44.159Z,98919.34
2023-04-15T07:31:47.974Z,98921.22
2023-04-15T07:35:50.539Z,98921.22
2023-04-15T07:39:53.481Z,98937.06
2023-04-15T07:43:55.975Z,98944.16
2023-04-15T07:47:59.894Z,98957.63
2023-04-15T07:52:02.448Z,98952.69
2023-04-15T07:56:05.622Z,98944.28
2023-04-15T08:00:09.639Z,98945.75
2023-04-15T08:04:19.429Z,98941.84
2023-04-15T08:08:22.210Z,98955.09
2023-04-15T08:12:25.054Z,98943.50
2023-04-15T08:16:28.551Z,98950.78
2023-04-15T08:20:32.524Z,98948.06
2023-04-15T08:24:35.183Z,98946.59
2023-04-15T08:28:40.447Z,98948.91
2023-04-15T08:32:43.549Z,98953.31
2023-04-15T08:36:47.459Z,98955.75
2023-04-15T08:40:50.019Z,98964.41
2023-04-15T08:44:53.927Z,98954.28
2023-04-15T08:48:57.585Z,98961.53
2023-04-15T08:53:01.854Z,98959.50
2023-04-15T08:57:04.582Z,98955.97
2023-04-15T09:01:07.172Z,98959.94
2023-04-15T09:05:10.095Z,98967.00
2023-04-15T09:09:15.205Z,98967.59
2023-04-15T09:13:17.866Z,98963.25
2023-04-15T09:17:21.682Z,98972.94
2023-04-15T09:21:25.455Z,98942.94
2023-04-15T09:25:32.170Z,98964.88
2023-04-15T09:29:36.946Z,98960.56
2023-04-15T09:33:55.405Z,98966.13
2023-04-15T09:38:04.348Z,98975.25
2023-04-15T09:42:08.782Z,98991.81
2023-04-15T09:46:11.439Z,98986.22
2023-04-15T09:50:14.625Z,98983.13
2023-04-15T09:54:20.320Z,98982.09
2023-04-15T09:58:26.376Z,98994.72
2023-04-15T10:02:31.312Z,98987.06
2023-04-15T10:06:35.667Z,98997.41
2023-04-15T10:10:38.926Z,99001.75
2023-04-15T10:14:44.321Z,99003.19
2023-04-15T10:18:48.364Z,99007.13
2023-04-15T10:22:52.437Z,99015.38
2023-04-15T10:26:55.793Z,99013.53
2023-04-15T10:31:00.238Z,99015.81
2023-04-15T10:35:04.225Z,99010.81
2023-04-15T10:39:42.816Z,99026.69
2023-04-15T10:43:57.810Z,99034.34
2023-04-15T10:48:03.973Z,99034.97
2023-04-15T10:52:09.384Z,99030.22
2023-04-15T10:56:13.271Z,99026.31
2023-04-15T11:00:17.817Z,99020.50
2023-04-15T11:04:55.915Z,99018.00
2023-04-15T11:09:02.795Z,99020.69
2023-04-15T11:13:17.643Z,99035.88
2023-04-15T11:17:29.509Z,99030.84
2023-04-15T11:21:32.103Z,99035.66
2023-04-15T11:25:37.199Z,99040.22
2023-04-15T11:29:41.379Z,99042.09
2023-04-15T11:33:48.746Z,99042.28
2023-04-15T11:37:51.413Z,99044.34
2023-04-15T11:41:53.990Z,99042.91
2023-04-15T11:45:59.923Z,99048.47
2023-04-15T11:50:16.427Z,99047.06
2023-04-15T11:54:20.391Z,99063.63
2023-04-15T11:58:24.803Z,99057.19
2023-04-15T12:02:33.270Z,99073.31
2023-04-15T12:06:37.343Z,99079.09
2023-04-15T12:10:39.881Z,99077.66
2023-04-15T12:14:42.672Z,99086.56
2023-04-15T12:18:48.276Z,99089.25
2023-04-15T12:22:50.929Z,99087.59
2023-04-15T12:26:55.884Z,99108.94
2023-04-15T12:30:59.373Z,99105.19
2023-04-15T12:35:03.130Z,99109.78
2023-04-15T12:39:06.189Z,99111.81
2023-04-15T12:43:08.809Z,99116.19
2023-04-15T12:47:12.272Z,99133.38
2023-04-15T12:51:16.217Z,99127.34
2023-04-15T12:55:18.747Z,99127.78
2023-04-15T12:59:21.614Z,99126.28
2023-04-15T13:03:24.297Z,99122.38
2023-04-15T13:07:28.233Z,99129.38
2023-04-15T13:11:33.579Z,99125.25
2023-04-15T13:15:36.465Z,99143.66
2023-04-15T13:19:39.944Z,99147.19
2023-04-15T13:23:43.754Z,99149.81
2023-04-15T13:27:46.601Z,99162.50
2023-04-15T13:31:49.199Z,99157.09
2023-04-15T13:35:51.844Z,99170.59
2023-04-15T13:39:55.950Z,99164.38
2023-04-15T13:43:58.534Z,99159.56
2023-04-15T13:48:01.369Z,99168.91
2023-04-15T13:52:04.009Z,99168.69
2023-04-15T13:56:09.063Z,99174.25
2023-04-15T14:00:12.962Z,99168.00
2023-04-15T14:04:15.728Z,99179.66
2023-04-15T14:08:18.316Z,99180.50
2023-04-15T14:12:22.171Z,99186.31
2023-04-15T14:16:24.673Z,99198.53
2023-04-15T14:20:27.257Z,99200.84
2023-04-15T14:24:29.892Z,99209.31
2023-04-15T14:28:33.728Z,99201.66
2023-04-15T14:32:36.368Z,99219.06
2023-04-15T14:36:40.347Z,99221.34
2023-04-15T14:40:43.207Z,99222.13
2023-04-15T14:44:47.188Z,99232.69
2023-04-15T14:48:50.270Z,99240.81
2023-04-15T14:52:52.839Z,99248.19
2023-04-15T14:56:55.820Z,99253.22
2023-04-15T15:00:59.838Z,99251.59
2023-04-15T15:05:02.759Z,99251.59
2023-04-15T15:09:05.673Z,99263.59
2023-04-15T15:13:09.850Z,99272.13
2023-04-15T15:17:14.046Z,99273.38
2023-04-15T15:21:16.548Z,99277.75
2023-04-15T15:25:19.174Z,99270.03
2023-04-15T15:29:21.732Z,99269.81
2023-04-15T15:33:25.633Z,99279.59
2023-04-15T15:37:28.670Z,99279.59
2023-04-15T15:41:33.255Z,99284.97
2023-04-15T15:45:36.337Z,99273.31
2023-04-15T15:49:41.044Z,99280.38
2023-04-15T15:53:44.675Z,99286.63
2023-04-15T15:57:47.189Z,99292.97
2023-04-15T16:01:50.499Z,99286.53
2023-04-15T16:05:54.388Z,99292.97
2023-04-15T16:09:56.917Z,99293.78
2023-04-15T16:13:59.474Z,99300.25
2023-04-15T16:18:02.057Z,99305.59
2023-04-15T16:22:06.017Z,99308.31
2023-04-15T16:26:08.620Z,99312.25
2023-04-15T16:30:12.651Z,99315.59
2023-04-15T16:34:15.857Z,99314.38
2023-04-15T16:38:19.725Z,99319.41
2023-04-15T16:42:22.296Z,99328.91
2023-04-15T16:46:24.929Z,99332.81
2023-04-15T16:50:27.469Z,99335.88
2023-04-15T16:54:33.451Z,99343.56
2023-04-15T16:58:35.989Z,99340.25
2023-04-15T17:02:38.800Z,99341.53
2023-04-15T17:06:41.485Z,99345.31
2023-04-15T17:10:45.370Z,99357.53
2023-04-15T17:14:47.872Z,99359.00
2023-04-15T17:18:51.139Z,99372.09
2023-04-15T17:22:53.693Z,99370.22
2023-04-15T17:26:57.678Z,99374.38
2023-04-15T17:31:00.434Z,99380.56
2023-04-15T17:35:05.990Z,99381.78
2023-04-15T17:39:08.553Z,99381.16
2023-04-15T17:43:12.406Z,99387.38
2023-04-15T17:47:15.063Z,99395.03
2023-04-15T17:51:17.558Z,99391.94
2023-04-15T17:55:22.053Z,99402.91
2023-04-15T17:59:26.259Z,99416.41
2023-04-15T18:03:28.984Z,99414.38
2023-04-15T18:07:31.654Z,99421.44
2023-04-15T18:11:34.231Z,99421.03
2023-04-15T18:15:38.141Z,99427.03
2023-04-15T18:19:40.679Z,99428.91
2023-04-15T18:23:43.181Z,99431.84
2023-04-15T18:27:45.759Z,99439.72
2023-04-15T18:31:49.700Z,99445.75
2023-04-15T18:35:52.288Z,99434.13
2023-04-15T18:39:55.066Z,99452.81
2023-04-15T18:43:57.552Z,99445.53
2023-04-15T18:48:01.472Z,99458.38
2023-04-15T18:52:04.287Z,99461.09
2023-04-15T18:56:07.298Z,99478.72
2023-04-15T19:00:11.219Z,99479.78
2023-04-15T19:04:15.282Z,99486.59
2023-04-15T19:08:17.873Z,99495.31
2023-04-15T19:12:20.382Z,99503.63
2023-04-15T19:16:22.900Z,99506.53
2023-04-15T19:20:26.860Z,99508.59
2023-04-15T19:24:31.076Z,99526.47
2023-04-15T19:28:35.433Z,99527.72
2023-04-15T19:32:37.979Z,99525.84
2023-04-15T19:36:41.901Z,99534.34
2023-04-15T19:40:44.457Z,99537.50
2023-04-15T19:44:46.959Z,99537.69
2023-04-15T19:48:49.553Z,99541.00
2023-04-15T19:52:53.440Z,99546.38
2023-04-15T19:56:56.424Z,99547.22
2023-04-15T20:00:59.115Z,99543.94
2023-04-15T20:05:01.657Z,99550.78
2023-04-15T20:09:06.450Z,99553.88
2023-04-15T20:13:09.858Z,99559.69
2023-04-15T20:17:12.394Z,99550.97
2023-04-15T20:21:14.963Z,99560.31
2023-04-15T20:25:18.884Z,99559.50
2023-04-15T20:29:21.432Z,99553.66
2023-04-15T20:33:25.619Z,99566.97
2023-04-15T20:37:29.508Z,99568.41
2023-04-15T20:41:33.452Z,99571.31
2023-04-15T20:45:36.520Z,99574.63
2023-04-15T20:49:40.769Z,99571.53
2023-04-15T20:53:43.288Z,99575.06
2023-04-15T20:57:48.354Z,99580.66
